Date,TemperatureHighF,TemperatureAvgF,TemperatureLowF,DewpointHighF,DewpointAvgF,DewpointLowF,HumidityHigh,HumidityAvg,HumidityLow,PressureMaxIn,PressureMinIn,WindSpeedMaxMPH,WindSpeedAvgMPH,GustSpeedMaxMPH,PrecipitationSumIn
2014-1-1,37.7,25.3,12.7,27.6,19.7,8.8,88,79,66,30.36,29.88,21,11,29,0.00
2014-1-2,31.4,19.0,6.8,22.8,13.1,3.2,86,78,64,30.48,30.36,13,4,20,0.00
2014-1-3,46.1,32.5,19.7,27.0,20.9,14.0,79,64,45,30.37,29.68,27,15,41,0.00
2014-1-4,42.7,30.5,17.5,30.3,21.5,14.8,90,70,51,30.03,29.61,20,11,31,0.00
2014-1-5,17.7,11.7,5.5,15.3,5.0,-4.1,90,75,54,30.61,30.01,22,13,31,0.00
2014-1-6,14.4,7.2,-1.0,1.3,-4.6,-10.3,74,58,46,30.69,30.41,11,7,17,0.00
2014-1-7,41.2,26.0,9.0,26.2,15.9,0.9,79,66,54,30.41,30.08,16,8,23,0.00
2014-1-8,40.4,34.2,29.5,25.0,21.9,17.7,75,61,51,30.23,30.07,8,5,15,0.00
2014-1-9,35.1,31.6,27.1,33.5,28.2,22.7,96,87,75,30.21,29.88,10,5,16,0.00
2014-1-10,45.3,38.7,34.2,41.8,35.6,32.4,97,89,69,29.88,29.53,14,8,23,0.02
2014-1-11,52.8,41.7,30.7,34.5,30.7,26.0,94,67,40,29.92,29.68,13,7,20,0.00
2014-1-12,67.7,49.5,39.8,35.8,30.6,25.8,69,50,27,29.80,29.38,21,12,29,0.00
2014-1-13,44.0,38.1,33.3,34.3,29.4,26.8,80,71,58,29.92,29.65,11,7,20,0.00
2014-1-14,44.9,42.5,38.9,31.4,26.6,15.6,62,53,34,30.14,29.77,24,14,36,0.00
2014-1-15,48.9,41.0,25.3,27.9,25.5,20.3,85,55,40,30.26,29.81,15,9,36,0.00
2014-1-16,52.9,43.3,32.4,29.6,21.0,10.9,75,44,19,30.13,29.80,22,12,33,0.00
2014-1-17,43.9,34.4,24.2,19.4,16.4,14.0,72,49,30,30.21,29.95,13,8,24,0.00
2014-1-18,53.9,42.1,30.0,27.5,23.4,15.7,75,49,33,30.11,29.83,20,10,35,0.00
2014-1-19,65.7,44.8,26.9,27.4,24.5,22.0,82,50,21,30.11,29.80,24,8,29,0.00
2014-1-20,54.3,41.5,28.1,30.0,23.6,10.0,76,51,32,30.32,29.78,26,10,41,0.00
2014-1-21,29.5,20.7,9.9,10.7,2.2,-6.0,67,46,27,30.47,30.09,20,9,28,0.00
2014-1-22,41.5,30.5,18.0,23.2,15.4,-0.3,75,54,37,30.44,30.10,16,8,25,0.00
2014-1-23,18.6,12.2,7.1,-0.3,-4.8,-8.1,57,46,33,30.83,30.44,16,8,26,0.00
2014-1-24,48.2,29.1,10.6,22.9,9.2,-3.6,61,44,29,30.73,29.91,22,13,31,0.00
2014-1-25,56.3,46.9,36.7,34.7,29.7,23.0,65,52,40,30.03,29.77,16,8,22,0.00
2014-1-26,59.9,44.9,26.0,32.4,26.3,1.0,73,51,29,30.16,29.64,30,10,44,0.00
2014-1-27,25.8,16.6,12.7,3.6,-5.8,-9.8,41,36,30,30.49,30.16,21,11,35,0.00
2014-1-28,30.5,20.1,10.1,11.8,1.6,-5.3,61,45,30,30.51,30.30,14,5,21,0.00
2014-1-29,48.5,23.4,15.2,15.3,10.4,5.2,83,62,20,30.30,29.91,23,7,38,0.00
2014-1-30,49.3,40.1,32.6,25.2,19.7,10.6,58,44,32,29.89,29.57,20,9,37,0.00
2014-1-31,33.0,25.8,22.7,21.6,19.0,15.7,93,76,57,29.94,29.81,11,7,20,0.00